This is the latest recevied weather packets stored in our database for station/object KD9JJA. If no packets are shown the sender has not sent any weather packets the latest 10 day(s).
| Time | Temp. | Humidity | Pressure | Rain* | Wind** | Luminosity | Snow |
|---|---|---|---|---|---|---|---|
| 1777937880 | 23.89° C | 51% | 1005.6 hPa | 0 mm | - | 24 W/m² | - |
| 1777937575 | 23.89° C | 52% | 1005.5 hPa | 0 mm | - | 26 W/m² | - |
| 1777937272 | 23.89° C | 50% | 1005.7 hPa | 0 mm | - | 32 W/m² | - |
| 1777936970 | 23.89° C | 51% | 1005.8 hPa | 0 mm | - | 34 W/m² | - |
| 1777936666 | 23.89° C | 51% | 1005.9 hPa | 0 mm | - | 45 W/m² | - |
| 1777936363 | 23.89° C | 51% | 1006 hPa | 0 mm | - | 62 W/m² | - |
| 1777936059 | 23.89° C | 53% | 1006 hPa | 0 mm | - | 40 W/m² | - |
| 1777935757 | 23.89° C | 54% | 1006.2 hPa | 0 mm | - | 35 W/m² | - |
| 1777935456 | 23.89° C | 53% | 1006.2 hPa | 0 mm | - | 55 W/m² | - |
| 1777935151 | 23.89° C | 55% | 1006.2 hPa | 0 mm | - | 40 W/m² | - |
| 1777934849 | 23.89° C | 52% | 1006.4 hPa | 0 mm | - | 43 W/m² | - |
| 1777934546 | 23.89° C | 54% | 1006.2 hPa | 0 mm | - | 47 W/m² | - |
| 1777934242 | 23.33° C | 55% | 1006.5 hPa | 0 mm | - | 40 W/m² | - |
| 1777933938 | 23.89° C | 55% | 1006.7 hPa | 0 mm | - | 42 W/m² | - |
| 1777933635 | 23.89° C | 52% | 1006.8 hPa | 0 mm | - | 39 W/m² | - |
| 1777933332 | 23.89° C | 52% | 1006.6 hPa | 0 mm | - | 45 W/m² | - |
| 1777933030 | 23.89° C | 52% | 1007 hPa | 0 mm | - | 70 W/m² | - |
| 1777932727 | 23.89° C | 52% | 1007 hPa | 0 mm | - | 74 W/m² | - |
| 1777932423 | 23.89° C | 53% | 1007 hPa | 0 mm | - | 51 W/m² | - |
| 1777932121 | 23.89° C | 52% | 1006.8 hPa | 0 mm | - | 54 W/m² | - |
| 1777931817 | 23.89° C | 54% | 1007.1 hPa | 0 mm | - | 64 W/m² | - |
| 1777931514 | 23.89° C | 49% | 1007 hPa | 0 mm | - | 97 W/m² | - |
| 1777931210 | 23.89° C | 50% | 1007 hPa | 0 mm | - | 63 W/m² | - |
| 1777930906 | 23.89° C | 48% | 1007.1 hPa | 0 mm | - | 81 W/m² | - |
| 1777930603 | 23.89° C | 47% | 1007.1 hPa | 0 mm | - | 98 W/m² | - |
* Rain latest hour (hover to see other rain measurements)
** Current wind speed in m/s (hover to see current wind gust speed)